Time;durP1;ratioP1;P1;durP2;ratioP2;P2;SDS_P1;SDS_P2;PMS_P1;PMS_P2;Temp;Humidity;BMP_temperature;BMP_pressure;BME280_temperature;BME280_humidity;BME280_pressure;Samples;Min_cycle;Max_cycle;Signal;HPM_P1;HPM_P2
2021/08/25 00:01:33;;;;;;;0.10;0.10;;;;;;;21.87;40.95;100230.41;6273102;22;20026;-65
2021/08/25 00:04:00;;;;;;;0.10;0.10;;;;;;;21.85;40.87;100223.56;6273064;22;20047;-67
2021/08/25 00:06:26;;;;;;;0.20;0.20;;;;;;;21.80;40.96;100218.66;6272991;22;20352;-66
2021/08/25 00:08:52;;;;;;;0.10;0.10;;;;;;;21.85;40.88;100229.72;6273244;22;20414;-66
2021/08/25 00:11:18;;;;;;;0.10;0.10;;;;;;;21.80;40.97;100224.84;6272813;22;20016;-66
2021/08/25 00:13:44;;;;;;;0.17;0.17;;;;;;;21.85;40.94;100223.56;6273591;22;20363;-66
2021/08/25 00:16:11;;;;;;;0.25;0.25;;;;;;;21.78;41.01;100205.53;6272727;22;20367;-66
2021/08/25 00:18:37;;;;;;;0.20;0.20;;;;;;;21.84;40.91;100220.06;6272962;22;20015;-65
2021/08/25 00:21:03;;;;;;;0.10;0.10;;;;;;;21.83;41.10;100218.38;6272599;22;20085;-66
2021/08/25 00:23:29;;;;;;;0.10;0.10;;;;;;;21.83;40.94;100219.22;6273053;22;20022;-65
2021/08/25 00:26:03;;;;;;;0.10;0.10;;;;;;;21.82;40.96;100222.84;6265223;22;20024;-66
2021/08/25 00:28:29;;;;;;;0.13;0.13;;;;;;;21.81;40.94;100215.88;6242206;23;20027;-66
2021/08/25 00:30:55;;;;;;;0.10;0.10;;;;;;;21.81;40.94;100220.34;6242150;23;20068;-65
2021/08/25 00:33:21;;;;;;;0.10;0.10;;;;;;;21.80;40.81;100213.34;6242047;23;20457;-66
2021/08/25 00:35:47;;;;;;;0.10;0.10;;;;;;;21.77;40.94;100214.50;6242094;23;20027;-66
2021/08/25 00:38:13;;;;;;;0.10;0.10;;;;;;;21.78;40.97;100216.19;6241908;23;20078;-65
2021/08/25 00:40:39;;;;;;;0.10;0.10;;;;;;;21.75;40.92;100215.63;6242028;23;20141;-65
2021/08/25 00:43:06;;;;;;;0.10;0.10;;;;;;;21.78;40.93;100221.50;6241958;23;20094;-66
2021/08/25 00:45:44;;;;;;;0.22;0.22;;;;;;;21.75;40.94;100211.16;6242326;23;20347;-65
2021/08/25 00:48:16;;;;;;;0.00;0.00;;;;;;;21.75;40.84;100207.66;6241871;23;20020;-66
2021/08/25 00:50:46;;;;;;;0.10;0.10;;;;;;;21.76;40.89;100212.81;6241922;23;20016;-66
2021/08/25 00:53:12;;;;;;;0.10;0.10;;;;;;;21.75;40.81;100216.47;6209948;23;20371;-66
2021/08/25 00:55:38;;;;;;;0.10;0.10;;;;;;;21.77;40.91;100224.28;6211587;23;20017;-65
2021/08/25 00:58:08;;;;;;;0.10;0.10;;;;;;;21.76;40.81;100219.94;6211185;23;20016;-66
2021/08/25 01:00:37;;;;;;;0.10;0.10;;;;;;;21.73;40.87;100215.75;6211940;23;20020;-65
2021/08/25 01:03:07;;;;;;;0.30;0.30;;;;;;;21.73;40.82;100218.41;6209978;23;20052;-66
2021/08/25 01:05:37;;;;;;;0.20;0.20;;;;;;;21.73;40.85;100209.59;6211560;23;20040;-65
2021/08/25 01:08:03;;;;;;;0.30;0.30;;;;;;;21.72;40.97;100210.63;6209750;23;20027;-66
2021/08/25 01:10:31;;;;;;;0.10;0.10;;;;;;;21.70;40.84;100213.41;6209851;23;20111;-65
2021/08/25 01:13:01;;;;;;;0.10;0.10;;;;;;;21.68;40.78;100214.53;6211570;23;20020;-66
2021/08/25 01:15:32;;;;;;;0.10;0.10;;;;;;;21.63;41.02;100207.00;6211239;23;20017;-65
2021/08/25 01:17:58;;;;;;;;;;;;;;;21.67;40.92;100212.84;6212153;23;20059;-65
2021/08/25 01:20:24;;;;;;;0.10;0.10;;;;;;;21.66;40.96;100214.66;6209598;23;19916;-65
2021/08/25 01:22:50;;;;;;;0.10;0.10;;;;;;;21.65;40.99;100213.00;6211637;23;20021;-65
2021/08/25 01:25:18;;;;;;;0.10;0.10;;;;;;;21.64;40.74;100214.00;6211094;23;20110;-65
2021/08/25 01:27:48;;;;;;;0.10;0.10;;;;;;;21.59;40.85;100210.94;6209900;23;20024;-65
2021/08/25 01:30:14;;;;;;;0.10;0.10;;;;;;;21.62;41.07;100218.63;6209585;23;20021;-65
2021/08/25 01:32:40;;;;;;;0.10;0.10;;;;;;;21.61;40.96;100211.63;6209971;23;20016;-65
2021/08/25 01:35:06;;;;;;;0.25;0.25;;;;;;;21.60;41.16;100207.28;6211808;23;20021;-66
2021/08/25 01:37:32;;;;;;;0.10;0.10;;;;;;;21.60;41.04;100207.28;6211517;23;20044;-64
2021/08/25 01:39:59;;;;;;;0.22;0.22;;;;;;;21.59;41.02;100200.31;6209865;23;20028;-65
2021/08/25 01:42:25;;;;;;;0.13;0.13;;;;;;;21.59;41.10;100205.63;6184824;23;20448;-65
2021/08/25 01:44:51;;;;;;;0.10;0.10;;;;;;;21.59;40.94;100200.31;6211342;23;20024;-66
2021/08/25 01:47:18;;;;;;;0.10;0.10;;;;;;;21.59;41.07;100205.63;6211417;23;20032;-66
2021/08/25 01:49:47;;;;;;;0.10;0.10;;;;;;;21.59;41.11;100204.78;6211666;23;20017;-66
2021/08/25 01:52:14;;;;;;;0.10;0.10;;;;;;;21.59;41.29;100205.63;6222527;23;20016;-65
2021/08/25 01:54:39;;;;;;;0.10;0.10;;;;;;;21.58;41.28;100209.25;6241426;23;20455;-66
2021/08/25 01:57:06;;;;;;;0.10;0.10;;;;;;;21.58;41.30;100208.41;6241405;23;20031;-66
2021/08/25 01:59:32;;;;;;;0.10;0.10;;;;;;;21.49;41.19;100188.88;6214727;23;20368;-65
2021/08/25 02:01:58;;;;;;;0.30;0.30;;;;;;;21.59;40.96;100210.94;6214612;23;20359;-63
2021/08/25 02:04:24;;;;;;;0.10;0.10;;;;;;;21.58;41.13;100219.06;6241199;23;20020;-65
2021/08/25 02:06:50;;;;;;;0.15;0.15;;;;;;;21.53;41.10;100208.03;6241479;23;20048;-64
2021/08/25 02:09:16;;;;;;;0.10;0.10;;;;;;;21.52;41.04;100209.84;6242344;23;20024;-64
2021/08/25 02:11:49;;;;;;;0.20;0.20;;;;;;;21.53;40.87;100206.19;6244148;23;20023;-66
2021/08/25 02:14:31;;;;;;;0.10;0.10;;;;;;;21.54;40.97;100205.22;6243977;23;20470;-63
2021/08/25 02:16:59;;;;;;;0.10;0.10;;;;;;;21.53;41.09;100206.19;6190089;23;20095;-64
2021/08/25 02:19:25;;;;;;;1.52;1.38;;;;;;;21.52;40.87;100204.53;6243928;23;20039;-62
2021/08/25 02:21:56;;;;;;;0.10;0.10;;;;;;;21.52;40.89;100203.69;6244315;23;20016;-67
2021/08/25 02:24:23;;;;;;;0.10;0.10;;;;;;;21.46;40.89;100199.81;6192779;23;20027;-62
2021/08/25 02:26:49;;;;;;;0.10;0.10;;;;;;;21.53;40.74;100208.03;6244290;22;20016;-62
2021/08/25 02:29:21;;;;;;;0.20;0.20;;;;;;;21.54;40.80;100207.88;6244227;23;20513;-67
2021/08/25 02:31:55;;;;;;;0.10;0.10;;;;;;;21.56;40.65;100221.03;6192695;23;20364;-65
2021/08/25 02:34:25;;;;;;;0.10;0.10;;;;;;;21.56;40.66;100205.88;6218568;23;20482;-66
2021/08/25 02:36:55;;;;;;;0.10;0.10;;;;;;;21.56;40.44;100210.41;6217850;23;20363;-64
2021/08/25 02:39:24;;;;;;;0.10;0.10;;;;;;;21.55;40.38;100198.94;6217421;23;20016;-65
2021/08/25 02:41:58;;;;;;;0.20;0.20;;;;;;;21.57;40.36;100207.56;6217646;23;20077;-64
2021/08/25 02:44:24;;;;;;;0.20;0.20;;;;;;;21.56;40.33;100211.22;6218877;23;20105;-63
2021/08/25 02:46:50;;;;;;;0.10;0.10;;;;;;;21.58;40.33;100211.06;6243864;23;20024;-62
2021/08/25 02:49:17;;;;;;;0.10;0.10;;;;;;;21.57;40.37;100210.22;6216781;23;20020;-63
2021/08/25 02:51:43;;;;;;;0.25;0.25;;;;;;;21.58;40.28;100206.59;6243341;23;20016;-65
2021/08/25 02:54:10;;;;;;;0.15;0.15;;;;;;;21.60;40.08;100201.97;6217188;23;20102;-67
2021/08/25 02:56:36;;;;;;;0.10;0.10;;;;;;;21.62;40.08;100208.00;6192837;23;20020;-66
2021/08/25 02:59:02;;;;;;;0.10;0.10;;;;;;;21.60;39.97;100207.28;6217589;23;20098;-62
2021/08/25 03:01:28;;;;;;;0.10;0.10;;;;;;;21.65;39.90;100210.34;6192479;23;20015;-66
2021/08/25 03:04:05;;;;;;;0.10;0.10;;;;;;;21.68;39.80;100218.03;6217405;23;20367;-64
2021/08/25 03:06:32;;;;;;;0.10;0.10;;;;;;;21.69;39.68;100222.34;6192625;23;20070;-65
2021/08/25 03:08:58;;;;;;;0.10;0.10;;;;;;;21.61;39.63;100208.97;6243146;23;20451;-64
2021/08/25 03:11:24;;;;;;;0.10;0.10;;;;;;;21.62;39.50;100205.34;6217121;23;20055;-61
2021/08/25 03:13:59;;;;;;;0.10;0.10;;;;;;;21.73;39.66;100218.41;6192907;23;20019;-66
2021/08/25 03:16:26;;;;;;;0.00;0.00;;;;;;;21.75;39.53;100215.63;6169058;23;20020;-64
2021/08/25 03:19:22;;;;;;;0.10;0.10;;;;;;;21.77;39.27;100209.19;6217182;23;20020;-65
2021/08/25 03:21:52;;;;;;;0.10;0.10;;;;;;;21.77;39.37;100209.19;6168319;23;20103;-67
2021/08/25 03:24:18;;;;;;;0.15;0.15;;;;;;;21.82;39.05;100206.91;6216687;23;20364;-62
2021/08/25 03:26:44;;;;;;;0.10;0.10;;;;;;;21.83;38.87;100218.38;6217191;23;20165;-64
2021/08/25 03:29:11;;;;;;;0.63;0.63;;;;;;;21.86;38.90;100219.94;6243834;23;20190;-64
2021/08/25 03:31:39;;;;;;;0.10;0.10;;;;;;;21.90;38.94;100216.00;6191887;23;20022;-66
2021/08/25 03:34:14;;;;;;;0.10;0.10;;;;;;;21.94;38.68;100218.22;6216973;23;20027;-67
2021/08/25 03:36:41;;;;;;;0.10;0.10;;;;;;;21.98;38.76;100221.44;6244052;23;20016;-66
2021/08/25 03:39:10;;;;;;;0.10;0.10;;;;;;;22.05;38.50;100228.69;6217371;23;20023;-67
2021/08/25 03:41:48;;;;;;;0.10;0.10;;;;;;;22.15;38.43;100220.66;6168641;23;20020;-66
2021/08/25 03:44:46;;;;;;;0.10;0.10;;;;;;;22.23;38.03;100221.56;6179894;23;20023;-66
2021/08/25 03:47:13;;;;;;;0.20;0.20;;;;;;;22.44;37.63;100217.78;6217001;23;20027;-65
2021/08/25 03:49:43;;;;;;;;;;;;;;;22.80;36.86;100220.34;6218187;23;20019;-64
2021/08/25 03:52:09;;;;;;;0.22;0.22;;;;;;;23.64;35.42;100203.78;6142534;23;19917;-66
2021/08/25 03:54:36;;;;;;;0.20;0.20;;;;;;;24.62;33.58;100211.97;6216433;23;20016;-60
2021/08/25 03:57:04;;;;;;;0.20;0.20;;;;;;;25.38;32.25;100204.44;6216846;23;20020;-65
2021/08/25 03:59:32;;;;;;;0.32;0.32;;;;;;;25.96;31.10;100197.91;6216292;23;20210;-66
2021/08/25 04:01:58;;;;;;;0.30;0.30;;;;;;;26.42;30.29;100201.53;6216533;23;20355;-66
2021/08/25 04:04:28;;;;;;;0.20;0.20;;;;;;;26.88;29.56;100199.72;6216866;23;20016;-66
2021/08/25 04:07:21;;;;;;;0.20;0.20;;;;;;;27.30;28.75;100204.50;6217865;23;20023;-64
2021/08/25 04:09:49;;;;;;;0.25;0.25;;;;;;;27.65;28.40;100194.97;6215822;23;20054;-64
2021/08/25 04:12:15;;;;;;;0.20;0.20;;;;;;;27.94;27.77;100201.09;6242062;23;20469;-64
2021/08/25 04:14:45;;;;;;;0.20;0.20;;;;;;;28.21;26.96;100198.78;6243232;23;20363;-65
2021/08/25 04:17:13;;;;;;;0.20;0.20;;;;;;;28.47;26.45;100199.06;6216588;23;20016;-65
2021/08/25 04:19:42;;;;;;;0.10;0.10;;;;;;;28.60;26.32;100199.19;6243635;23;20601;-67
2021/08/25 04:22:10;;;;;;;0.20;0.20;;;;;;;28.87;25.56;100211.91;6168866;23;20133;-67
2021/08/25 04:24:36;;;;;;;0.20;0.20;;;;;;;29.21;25.33;100197.69;6242617;23;20034;-65
2021/08/25 04:27:04;;;;;;;0.45;0.45;;;;;;;29.40;25.09;100190.81;6243177;22;20020;-68
2021/08/25 04:29:36;;;;;;;0.20;0.20;;;;;;;29.62;24.65;100189.69;6217412;23;20765;-66
2021/08/25 04:32:22;;;;;;;0.20;0.20;;;;;;;29.82;24.42;100196.03;6214741;23;20091;-62
2021/08/25 04:35:17;;;;;;;0.30;0.30;;;;;;;30.03;23.74;100192.44;6216204;23;20016;-65
2021/08/25 04:37:49;;;;;;;0.30;0.30;;;;;;;29.88;23.33;100144.09;6199661;23;20027;-64
2021/08/25 04:40:27;;;;;;;0.60;0.60;;;;;;;30.29;23.04;100195.22;6215977;23;20268;-63
2021/08/25 04:42:55;;;;;;;0.05;0.05;;;;;;;30.22;23.32;100180.88;6243202;23;20020;-68
2021/08/25 04:45:27;;;;;;;0.20;0.20;;;;;;;29.67;23.95;100184.56;6169629;23;20069;-67
2021/08/25 04:48:05;;;;;;;0.50;0.50;;;;;;;29.82;23.85;100177.19;6191369;23;20375;-64
2021/08/25 04:50:37;;;;;;;0.20;0.20;;;;;;;29.97;23.33;100177.88;6217582;23;20020;-67
2021/08/25 04:53:07;;;;;;;0.10;0.10;;;;;;;29.85;23.55;100179.50;6216667;23;20031;-64
2021/08/25 04:55:40;;;;;;;0.30;0.30;;;;;;;30.11;23.10;100183.31;6192585;23;20019;-66
2021/08/25 04:58:12;;;;;;;0.30;0.30;;;;;;;30.46;22.55;100171.44;6168575;23;20095;-66
2021/08/25 05:00:45;;;;;;;0.20;0.20;;;;;;;30.63;22.12;100172.69;6191715;23;20467;-64
2021/08/25 05:03:33;;;;;;;0.20;0.20;;;;;;;30.85;22.02;100176.88;6243239;23;20023;-66
2021/08/25 05:06:05;;;;;;;0.20;0.20;;;;;;;31.05;21.40;100176.91;6243403;23;20367;-64
2021/08/25 05:08:42;;;;;;;0.20;0.20;;;;;;;31.05;21.45;100184.16;6214207;23;20027;-65
2021/08/25 05:11:25;;;;;;;0.20;0.20;;;;;;;31.18;20.95;100181.44;6242645;23;20016;-68
2021/08/25 05:13:57;;;;;;;0.20;0.20;;;;;;;31.30;20.78;100180.59;6216974;23;20498;-66
2021/08/25 05:16:37;;;;;;;0.20;0.20;;;;;;;31.48;20.22;100178.03;6170534;23;20103;-65
2021/08/25 05:19:03;;;;;;;0.20;0.20;;;;;;;31.44;20.04;100160.63;6167051;23;20036;-63
2021/08/25 05:21:43;;;;;;;0.20;0.20;;;;;;;31.62;20.57;100181.56;6215915;23;20023;-66
2021/08/25 05:24:21;;;;;;;0.22;0.22;;;;;;;31.70;20.61;100181.34;6242870;23;20356;-66
2021/08/25 05:26:47;;;;;;;0.20;0.20;;;;;;;31.73;20.61;100175.53;6242571;22;20395;-64
2021/08/25 05:29:13;;;;;;;0.20;0.20;;;;;;;31.81;20.37;100175.28;6243147;23;20042;-62
2021/08/25 05:31:40;;;;;;;0.20;0.20;;;;;;;31.79;20.41;100168.44;6215548;23;20008;-64
2021/08/25 05:34:06;;;;;;;0.20;0.20;;;;;;;31.85;20.71;100172.97;6242425;23;20020;-62
2021/08/25 05:36:32;;;;;;;0.20;0.20;;;;;;;31.88;20.35;100172.53;6190464;23;20012;-64
2021/08/25 05:38:58;;;;;;;0.20;0.20;;;;;;;31.93;20.12;100178.16;6242606;23;20024;-67
2021/08/25 05:41:26;;;;;;;0.13;0.13;;;;;;;31.98;19.98;100168.34;6242430;23;20360;-66
2021/08/25 05:43:53;;;;;;;0.20;0.20;;;;;;;32.03;20.11;100170.41;6244519;23;20020;-65
2021/08/25 05:46:19;;;;;;;0.17;0.17;;;;;;;32.00;19.94;100158.13;6192412;23;20026;-63
2021/08/25 05:48:45;;;;;;;0.30;0.30;;;;;;;32.15;20.04;100170.59;6218399;23;20419;-65
2021/08/25 05:51:23;;;;;;;0.20;0.20;;;;;;;32.20;19.75;100173.47;6244940;23;20112;-67
2021/08/25 05:53:51;;;;;;;0.60;0.60;;;;;;;32.03;19.81;100168.50;6244930;23;20066;-63
2021/08/25 05:56:28;;;;;;;0.20;0.20;;;;;;;32.14;19.85;100166.22;6244553;23;20023;-65
2021/08/25 05:59:11;;;;;;;0.13;0.13;;;;;;;32.29;19.52;100147.84;6217914;23;20474;-64
2021/08/25 06:01:47;;;;;;;0.15;0.15;;;;;;;32.32;19.13;100148.25;6244139;23;20020;-64
2021/08/25 06:04:20;;;;;;;0.20;0.20;;;;;;;32.57;19.20;100153.69;6244920;23;20355;-62
2021/08/25 06:06:52;;;;;;;0.10;0.10;;;;;;;33.13;18.14;100144.72;6218273;23;20024;-61
2021/08/25 06:09:40;;;;;;;0.20;0.20;;;;;;;35.12;15.86;100156.22;6218284;23;20048;-65
2021/08/25 06:12:15;;;;;;;0.55;0.55;;;;;;;39.15;12.69;100156.16;6218443;23;20027;-67
2021/08/25 06:14:41;;;;;;;0.20;0.20;;;;;;;40.58;11.40;100150.97;6217418;23;20055;-64
2021/08/25 06:17:07;;;;;;;0.30;0.30;;;;;;;42.02;10.44;100152.00;6243465;23;20090;-65
2021/08/25 06:19:33;;;;;;;0.30;0.30;;;;;;;43.13;10.13;100151.16;6243375;23;20020;-64
2021/08/25 06:21:59;;;;;;;0.40;0.40;;;;;;;44.05;9.00;100146.19;6243391;23;20103;-64
2021/08/25 06:24:25;;;;;;;0.30;0.30;;;;;;;44.39;8.36;100145.97;6243111;23;20020;-65
2021/08/25 06:26:51;;;;;;;0.40;0.40;;;;;;;44.44;8.55;100132.13;6243213;22;20090;-64
2021/08/25 06:29:17;;;;;;;0.20;0.20;;;;;;;44.88;8.17;100121.44;6243359;23;20459;-64
2021/08/25 06:31:43;;;;;;;0.30;0.30;;;;;;;45.07;8.61;100124.94;6242870;23;20020;-62
2021/08/25 06:34:09;;;;;;;0.77;0.77;;;;;;;44.76;8.37;100101.81;6243265;23;20023;-63
2021/08/25 06:36:35;;;;;;;0.50;0.50;;;;;;;43.83;9.01;100118.41;6242816;23;20058;-63
2021/08/25 06:39:01;;;;;;;0.25;0.25;;;;;;;40.76;10.89;100128.50;6243044;23;20136;-63
2021/08/25 06:41:27;;;;;;;0.35;0.35;;;;;;;37.71;13.20;100131.53;6216196;23;20020;-64
2021/08/25 06:43:53;;;;;;;0.15;0.15;;;;;;;35.70;15.18;100127.09;6191644;23;20023;-63
2021/08/25 06:46:19;;;;;;;1.88;0.60;;;;;;;34.64;16.21;100127.38;6216217;23;20490;-62
2021/08/25 06:48:45;;;;;;;0.10;0.10;;;;;;;33.89;16.89;100135.13;6242816;23;20108;-63
2021/08/25 06:51:11;;;;;;;0.43;0.20;;;;;;;33.35;17.56;100110.72;6243003;23;20020;-64
2021/08/25 06:53:37;;;;;;;0.10;0.10;;;;;;;33.10;18.28;100118.09;6210737;23;20753;-63
2021/08/25 06:56:03;;;;;;;0.15;0.15;;;;;;;32.55;18.37;100115.22;6212386;23;20344;-63
2021/08/25 06:58:29;;;;;;;0.10;0.10;;;;;;;32.20;19.06;100106.72;6210889;23;20070;-63
2021/08/25 07:00:56;;;;;;;0.20;0.20;;;;;;;32.24;18.77;100113.34;6212551;23;20016;-63
2021/08/25 07:03:22;;;;;;;0.20;0.20;;;;;;;32.22;19.45;100111.91;6212700;23;20464;-63
2021/08/25 07:05:48;;;;;;;0.15;0.15;;;;;;;32.15;19.03;100109.25;6212511;23;20017;-63
2021/08/25 07:08:14;;;;;;;0.10;0.10;;;;;;;32.02;19.33;100112.00;6212713;23;20055;-63
2021/08/25 07:10:40;;;;;;;0.10;0.10;;;;;;;31.84;19.51;100118.09;6212104;23;20047;-63
2021/08/25 07:13:06;;;;;;;0.20;0.20;;;;;;;31.77;19.19;100125.44;6212526;23;20021;-63
2021/08/25 07:15:32;;;;;;;0.10;0.10;;;;;;;31.61;19.70;100134.00;6212192;23;20405;-63
2021/08/25 07:17:58;;;;;;;0.10;0.10;;;;;;;31.61;19.79;100128.59;6212165;23;20024;-63
2021/08/25 07:20:24;;;;;;;0.17;0.17;;;;;;;31.64;19.99;100139.00;6212276;23;20016;-63
2021/08/25 07:22:50;;;;;;;0.10;0.10;;;;;;;31.65;19.92;100132.53;6212296;23;20116;-64
2021/08/25 07:25:17;;;;;;;0.13;0.13;;;;;;;31.59;19.77;100125.28;6212407;23;20469;-63
2021/08/25 07:27:43;;;;;;;0.10;0.10;;;;;;;31.09;20.45;100116.06;6211997;23;20023;-63
2021/08/25 07:30:10;;;;;;;0.10;0.10;;;;;;;30.73;20.72;100121.88;6212514;23;20605;-63
2021/08/25 07:32:36;;;;;;;0.25;0.25;;;;;;;30.41;21.24;100122.69;6212055;23;20136;-63
2021/08/25 07:35:03;;;;;;;0.10;0.10;;;;;;;30.29;21.44;100116.22;6210708;23;20091;-62
2021/08/25 07:37:29;;;;;;;0.10;0.10;;;;;;;30.14;21.63;100118.28;6212037;23;20345;-63
2021/08/25 07:39:55;;;;;;;0.15;0.15;;;;;;;30.34;21.62;100129.91;6212509;23;20116;-63
2021/08/25 07:42:21;;;;;;;0.20;0.20;;;;;;;30.57;21.05;100124.97;6210823;23;20017;-62
2021/08/25 07:44:47;;;;;;;0.25;0.25;;;;;;;30.69;20.97;100120.66;6210418;23;20063;-63
2021/08/25 07:47:13;;;;;;;0.10;0.10;;;;;;;30.75;20.85;100113.59;6212061;23;20115;-62
2021/08/25 07:49:39;;;;;;;0.25;0.25;;;;;;;30.76;20.97;100113.38;6212096;23;20052;-63
2021/08/25 07:52:05;;;;;;;0.10;0.10;;;;;;;30.66;20.83;100122.94;6210538;23;20459;-62
2021/08/25 07:54:31;;;;;;;0.20;0.20;;;;;;;30.55;21.14;100126.22;6185536;23;20020;-64
2021/08/25 07:56:57;;;;;;;0.10;0.10;;;;;;;30.46;21.29;100133.69;6212129;23;20032;-63
2021/08/25 07:59:23;;;;;;;0.10;0.10;;;;;;;30.37;21.48;100122.22;6212625;23;20032;-63
2021/08/25 08:01:49;;;;;;;0.30;0.30;;;;;;;30.24;21.49;100124.06;6211735;23;20049;-63
2021/08/25 08:04:14;;;;;;;0.20;0.20;;;;;;;30.14;21.86;100116.38;6210758;23;20428;-63
2021/08/25 08:06:40;;;;;;;0.20;0.20;;;;;;;30.05;21.80;100119.47;6211265;23;20016;-63
2021/08/25 08:09:06;;;;;;;0.20;0.20;;;;;;;29.91;22.03;100110.53;6212089;23;20024;-64
2021/08/25 08:11:33;;;;;;;0.30;0.30;;;;;;;29.84;22.24;100107.00;6211808;23;20042;-64
2021/08/25 08:13:59;;;;;;;0.10;0.10;;;;;;;29.66;22.45;100102.13;6211868;23;20016;-63
2021/08/25 08:16:25;;;;;;;0.10;0.10;;;;;;;29.60;22.63;100112.88;6235752;23;20371;-63
2021/08/25 08:18:59;;;;;;;0.10;0.10;;;;;;;29.54;22.61;100111.81;6211713;23;20099;-62
2021/08/25 08:21:26;;;;;;;3.47;0.45;;;;;;;29.50;22.61;100104.34;6212043;23;20016;-62
2021/08/25 08:23:52;;;;;;;0.10;0.10;;;;;;;29.37;22.98;100097.03;6211971;23;20143;-61
2021/08/25 08:26:18;;;;;;;0.05;0.05;;;;;;;29.28;23.00;100100.94;6211783;23;20016;-62
2021/08/25 08:28:44;;;;;;;0.10;0.10;;;;;;;29.16;23.20;100097.09;6211363;23;20046;-62
2021/08/25 08:31:10;;;;;;;0.10;0.10;;;;;;;29.02;23.18;100088.13;6211757;23;20021;-63
2021/08/25 08:33:37;;;;;;;0.00;0.00;;;;;;;28.95;23.15;100079.19;6211524;23;20078;-63
2021/08/25 08:36:04;;;;;;;0.10;0.10;;;;;;;28.90;23.35;100087.00;6210012;23;20017;-62
2021/08/25 08:38:29;;;;;;;0.10;0.10;;;;;;;28.76;23.45;100086.06;6211483;23;20029;-62
2021/08/25 08:40:55;;;;;;;0.10;0.10;;;;;;;28.68;23.62;100090.75;6211538;23;20024;-62
2021/08/25 08:43:21;;;;;;;0.15;0.15;;;;;;;28.56;23.97;100070.81;6211777;23;20016;-62
2021/08/25 08:45:47;;;;;;;0.10;0.10;;;;;;;28.43;23.86;100074.22;6211289;23;20023;-62
2021/08/25 08:48:14;;;;;;;0.10;0.10;;;;;;;28.39;24.30;100086.38;6210199;23;20024;-62
2021/08/25 08:50:48;;;;;;;0.10;0.10;;;;;;;28.38;23.98;100082.84;6211545;23;20052;-62
2021/08/25 08:53:14;;;;;;;0.17;0.17;;;;;;;28.33;24.36;100084.44;6235462;23;20020;-62
2021/08/25 08:55:40;;;;;;;0.10;0.10;;;;;;;28.20;24.29;100085.16;6241625;23;20537;-63
2021/08/25 08:58:06;;;;;;;0.20;0.20;;;;;;;28.14;24.48;100085.91;6189835;23;20423;-61
2021/08/25 09:00:33;;;;;;;0.00;0.00;;;;;;;28.16;24.48;100080.34;6241406;23;20020;-62
2021/08/25 09:02:59;;;;;;;0.10;0.10;;;;;;;28.18;24.33;100080.97;6241303;23;20043;-62
2021/08/25 09:05:34;;;;;;;0.10;0.10;;;;;;;28.14;24.29;100079.72;6241618;23;20081;-61
2021/08/25 09:08:07;;;;;;;0.10;0.10;;;;;;;27.99;24.55;100073.53;6241566;23;20422;-62
2021/08/25 09:10:35;;;;;;;0.10;0.10;;;;;;;27.84;24.86;100079.81;6241597;23;20016;-63
2021/08/25 09:13:06;;;;;;;0.32;0.13;;;;;;;27.77;24.77;100073.53;6241521;23;20094;-62
2021/08/25 09:15:33;;;;;;;0.10;0.10;;;;;;;27.86;24.79;100083.13;6241861;23;20023;-62
2021/08/25 09:18:04;;;;;;;0.10;0.10;;;;;;;27.83;25.03;100077.28;6214655;23;20364;-62
2021/08/25 09:20:32;;;;;;;0.10;0.10;;;;;;;27.75;25.22;100072.03;6241797;23;20023;-62
2021/08/25 09:23:09;;;;;;;0.10;0.10;;;;;;;27.66;25.52;100081.22;6214715;23;20095;-62
2021/08/25 09:25:35;;;;;;;1.55;1.45;;;;;;;27.62;25.34;100079.94;6214691;22;20016;-63
2021/08/25 09:28:03;;;;;;;0.63;0.47;;;;;;;27.60;25.59;100071.25;6241238;23;20019;-61
2021/08/25 09:30:51;;;;;;;0.10;0.10;;;;;;;27.56;25.58;100070.78;6215545;23;20016;-62
2021/08/25 09:33:18;;;;;;;0.10;0.10;;;;;;;27.51;25.83;100067.00;6241310;23;20027;-65
2021/08/25 09:35:44;;;;;;;0.00;0.00;;;;;;;27.45;25.68;100065.91;6241201;23;20024;-65
2021/08/25 09:38:20;;;;;;;0.10;0.10;;;;;;;27.35;26.06;100055.44;6241362;23;20066;-66
2021/08/25 09:41:12;;;;;;;0.10;0.10;;;;;;;27.28;26.23;100049.16;6214720;23;20020;-66
2021/08/25 09:43:39;;;;;;;0.10;0.10;;;;;;;27.23;26.05;100048.88;6235789;23;20078;-65
2021/08/25 09:46:25;;;;;;;0.10;0.10;;;;;;;27.24;26.09;100042.50;6241364;23;20020;-65
2021/08/25 09:48:56;;;;;;;0.10;0.10;;;;;;;27.32;26.34;100063.03;6214543;23;20020;-65
2021/08/25 09:51:41;;;;;;;0.03;0.03;;;;;;;27.27;26.23;100055.53;6214974;23;20086;-66
2021/08/25 09:54:15;;;;;;;0.03;0.03;;;;;;;27.20;26.37;100059.16;6241365;23;20020;-66
2021/08/25 09:56:42;;;;;;;0.10;0.10;;;;;;;27.14;26.44;100046.47;6214850;23;20099;-66
2021/08/25 09:59:10;;;;;;;0.10;0.10;;;;;;;27.16;26.73;100052.50;6241509;23;20104;-66
2021/08/25 10:01:36;;;;;;;0.10;0.10;;;;;;;27.18;26.51;100050.47;6241043;23;20099;-67
2021/08/25 10:04:06;;;;;;;0.10;0.10;;;;;;;27.17;26.55;100060.34;6241333;23;20016;-65
2021/08/25 10:06:34;;;;;;;0.10;0.10;;;;;;;27.12;26.51;100046.69;6241598;23;20020;-62
2021/08/25 10:09:00;;;;;;;0.10;0.10;;;;;;;27.17;26.44;100051.47;6190202;23;20024;-62
2021/08/25 10:11:30;;;;;;;0.10;0.10;;;;;;;27.14;26.72;100038.44;6215082;23;20038;-61
2021/08/25 10:13:56;;;;;;;;;;;;;;;27.18;26.71;100039.75;6215174;23;20016;-61
2021/08/25 10:16:42;;;;;;;0.10;0.10;;;;;;;27.28;26.57;100045.66;6214580;23;19915;-61
2021/08/25 10:19:27;;;;;;;0.15;0.15;;;;;;;27.40;26.33;100044.16;6241319;23;20384;-62
2021/08/25 10:22:00;;;;;;;0.08;0.08;;;;;;;27.37;26.59;100029.25;6241186;23;20052;-62
2021/08/25 10:24:26;;;;;;;0.10;0.10;;;;;;;27.28;26.44;100029.56;6241449;23;20020;-65
2021/08/25 10:26:58;;;;;;;0.30;0.30;;;;;;;27.22;26.69;100033.00;6240973;22;20020;-66
2021/08/25 10:29:25;;;;;;;0.10;0.10;;;;;;;27.15;27.17;100030.22;6241883;23;20023;-64
2021/08/25 10:31:56;;;;;;;0.10;0.10;;;;;;;27.12;26.88;100030.59;6242985;23;20058;-64
2021/08/25 10:34:25;;;;;;;0.10;0.10;;;;;;;27.09;27.07;100036.34;6243931;23;20066;-64
2021/08/25 10:36:52;;;;;;;0.20;0.20;;;;;;;27.11;27.23;100033.44;6243074;23;20012;-64
2021/08/25 10:39:31;;;;;;;0.10;0.10;;;;;;;27.07;27.18;100022.25;6191856;23;20447;-63
2021/08/25 10:41:57;;;;;;;0.15;0.15;;;;;;;27.13;27.18;100031.41;6242923;23;20479;-64
2021/08/25 10:44:41;;;;;;;0.30;0.17;;;;;;;27.29;26.77;100042.75;6243678;23;20135;-64
2021/08/25 10:47:14;;;;;;;0.13;0.13;;;;;;;27.26;26.85;100040.47;6242860;23;20019;-63
2021/08/25 10:49:50;;;;;;;0.30;0.30;;;;;;;27.21;27.21;100034.00;6242831;23;20016;-65
2021/08/25 10:52:18;;;;;;;0.10;0.10;;;;;;;27.20;26.88;100033.16;6242809;23;20020;-64
2021/08/25 10:54:46;;;;;;;0.10;0.10;;;;;;;27.23;27.30;100031.94;6215943;23;20105;-63
2021/08/25 10:57:13;;;;;;;0.17;0.17;;;;;;;27.25;27.13;100030.78;6243071;23;20020;-64
2021/08/25 10:59:40;;;;;;;0.25;0.20;;;;;;;27.21;26.99;100037.53;6242660;23;20016;-64
2021/08/25 11:02:06;;;;;;;0.10;0.10;;;;;;;27.22;27.08;100043.72;6242721;23;20077;-63
2021/08/25 11:04:32;;;;;;;0.10;0.10;;;;;;;27.16;27.13;100025.69;6242970;23;20044;-64
2021/08/25 11:07:06;;;;;;;0.10;0.10;;;;;;;27.20;27.24;100041.22;6242396;23;20090;-64
2021/08/25 11:09:33;;;;;;;0.10;0.10;;;;;;;27.11;27.40;100025.41;6243012;23;20016;-63
2021/08/25 11:12:07;;;;;;;0.10;0.10;;;;;;;27.18;27.21;100031.69;6242516;23;20075;-66
2021/08/25 11:14:47;;;;;;;0.10;0.10;;;;;;;27.15;27.34;100040.13;6242917;23;20016;-65
2021/08/25 11:17:22;;;;;;;0.10;0.10;;;;;;;27.12;27.42;100035.13;6242867;23;20099;-64
2021/08/25 11:19:48;;;;;;;0.10;0.10;;;;;;;27.17;27.31;100032.69;6242545;23;20047;-65
2021/08/25 11:22:37;;;;;;;0.10;0.10;;;;;;;27.16;27.36;100039.91;6242501;23;20533;-65
2021/08/25 11:25:07;;;;;;;0.10;0.10;;;;;;;27.13;27.29;100031.41;6242747;23;20134;-64
2021/08/25 11:27:35;;;;;;;0.20;0.20;;;;;;;27.17;27.41;100025.50;6242559;22;20051;-65
2021/08/25 11:30:13;;;;;;;0.10;0.10;;;;;;;27.21;27.27;100020.59;6216344;23;20474;-63
2021/08/25 11:32:43;;;;;;;0.10;0.10;;;;;;;27.15;27.41;100019.50;6242213;23;20016;-65
2021/08/25 11:35:10;;;;;;;0.10;0.10;;;;;;;27.11;27.39;100028.94;6242812;23;20020;-65
2021/08/25 11:37:37;;;;;;;0.10;0.10;;;;;;;27.07;27.53;100026.78;6191276;23;20016;-64